Time;durP1;ratioP1;P1;durP2;ratioP2;P2;SDS_P1;SDS_P2;PMS_P1;PMS_P2;Temp;Humidity;BMP_temperature;BMP_pressure;BME280_temperature;BME280_humidity;BME280_pressure;Samples;Min_cycle;Max_cycle;Signal;HPM_P1;HPM_P2
2022/02/11 00:09:09;;;;;;;0.98;0.80;;;20.60;40.20;;;;;;5154194;27;20051;-73
2022/02/11 00:11:37;;;;;;;1.58;1.00;;;20.60;40.30;;;;;;5135345;27;20367;-73
2022/02/11 00:14:05;;;;;;;1.83;1.00;;;20.60;40.30;;;;;;5153452;27;20051;-73
2022/02/11 00:16:32;;;;;;;1.20;0.90;;;20.60;40.30;;;;;;5118026;27;20054;-73
2022/02/11 00:18:59;;;;;;;1.25;1.00;;;20.60;40.30;;;;;;5153127;27;20054;-73
2022/02/11 00:21:27;;;;;;;1.58;0.88;;;20.60;40.30;;;;;;5153508;27;20490;-73
2022/02/11 00:23:53;;;;;;;1.75;0.80;;;20.50;40.20;;;;;;5153425;27;20053;-73
2022/02/11 00:26:19;;;;;;;1.80;0.85;;;20.60;40.30;;;;;;5136893;27;20054;-73
2022/02/11 00:32:01;;;;;;;2.85;1.17;;;20.60;40.30;;;;;;5157263;27;20042;-73
2022/02/11 00:34:37;;;;;;;1.25;0.80;;;20.60;40.30;;;;;;5157263;27;20470;-74
2022/02/11 00:40:01;;;;;;;1.00;0.70;;;20.60;40.30;;;;;;5156507;27;20055;-73
2022/02/11 00:43:20;;;;;;;1.35;1.00;;;20.60;40.20;;;;;;5156633;27;20054;-73
2022/02/11 00:45:37;;;;;;;1.20;0.98;;;20.60;40.20;;;;;;5154358;27;20077;-73
2022/02/11 00:53:37;;;;;;;1.20;0.90;;;20.60;40.20;;;;;;5156617;27;20447;-73
2022/02/11 01:04:24;;;;;;;1.52;1.00;;;20.50;40.30;;;;;;5137671;27;20057;-73
2022/02/11 01:06:50;;;;;;;1.58;0.95;;;20.50;40.20;;;;;;5137708;27;20047;-74
2022/02/11 01:09:16;;;;;;;1.60;0.93;;;20.50;40.20;;;;;;5156190;27;20043;-74
2022/02/11 01:11:52;;;;;;;1.50;1.05;;;20.50;40.30;;;;;;5156166;27;20062;-73
2022/02/11 01:14:32;;;;;;;0.77;0.70;;;20.50;40.30;;;;;;5134121;27;20047;-73
2022/02/11 01:17:06;;;;;;;0.70;0.70;;;20.50;40.30;;;;;;5156187;27;20486;-73
2022/02/11 01:19:46;;;;;;;1.77;0.90;;;20.50;40.30;;;;;;5153733;27;20103;-73
2022/02/11 01:22:25;;;;;;;2.17;1.00;;;20.50;40.20;;;;;;5154610;27;20058;-74
2022/02/11 01:27:55;;;;;;;2.28;0.90;;;20.50;40.20;;;;;;5155846;27;20046;-74
2022/02/11 01:33:14;;;;;;;2.30;0.90;;;20.50;40.20;;;;;;5155801;27;20486;-73
2022/02/11 01:44:07;;;;;;;1.15;0.82;;;20.50;40.20;;;;;;5155717;27;20046;-73
2022/02/11 01:47:04;;;;;;;1.27;1.00;;;20.50;40.20;;;;;;5119892;27;20506;-73
2022/02/11 01:52:25;;;;;;;0.85;0.85;;;20.50;40.20;;;;;;5155543;27;20042;-73
2022/02/11 02:05:42;;;;;;;1.50;0.90;;;20.50;40.10;;;;;;5155096;27;20494;-73
2022/02/11 02:11:04;;;;;;;1.13;0.70;;;20.50;40.10;;;;;;5136227;27;20046;-73
2022/02/11 02:17:00;;;;;;;0.80;0.80;;;20.50;40.20;;;;;;5155510;27;19918;-73
2022/02/11 02:27:13;;;;;;;1.38;1.10;;;20.50;40.10;;;;;;5136469;27;20051;-73
2022/02/11 02:30:19;;;;;;;0.88;0.80;;;20.50;40.20;;;;;;5153433;27;20038;-74
2022/02/11 02:37:40;;;;;;;1.67;1.05;;;20.50;40.10;;;;;;5155233;27;19997;-73
2022/02/11 02:59:36;;;;;;;0.93;0.70;;;20.50;40.00;;;;;;5154265;27;20506;-74
2022/02/11 03:51:21;;;;;;;1.20;0.90;;;20.60;39.90;;;;;;5153931;27;20050;-73
2022/02/11 03:54:11;;;;;;;1.08;0.77;;;20.60;39.80;;;;;;5153690;27;20051;-73
2022/02/11 04:21:56;;;;;;;0.77;0.70;;;20.70;39.70;;;;;;5138452;27;20046;-73
2022/02/11 04:25:32;;;;;;;1.05;0.65;;;20.70;39.70;;;;;;5156176;27;20041;-73
2022/02/11 05:00:05;;;;;;;0.90;0.90;;;20.70;39.70;;;;;;5156849;27;20390;-73
2022/02/11 05:02:35;;;;;;;1.27;0.70;;;20.70;39.70;;;;;;5156488;27;20463;-73
2022/02/11 05:05:04;;;;;;;0.90;0.73;;;20.70;39.70;;;;;;5156051;27;20054;-73
2022/02/11 05:07:30;;;;;;;1.05;0.95;;;20.70;39.70;;;;;;5156134;27;20401;-73
2022/02/11 05:09:55;;;;;;;0.93;0.88;;;20.70;39.60;;;;;;5156654;27;20066;-74
2022/02/11 05:12:21;;;;;;;0.93;0.68;;;20.70;39.60;;;;;;5155963;27;20130;-73
2022/02/11 05:14:46;;;;;;;0.80;0.70;;;20.70;39.70;;;;;;5156312;27;20146;-73
2022/02/11 05:17:12;;;;;;;1.08;0.80;;;20.70;39.60;;;;;;5155966;27;20450;-73
2022/02/11 05:19:37;;;;;;;0.73;0.63;;;20.70;39.60;;;;;;5137361;27;20406;-73
2022/02/11 05:22:03;;;;;;;1.05;0.95;;;20.70;39.60;;;;;;5156103;27;20089;-74
2022/02/11 05:24:29;;;;;;;1.80;0.90;;;20.70;39.60;;;;;;5156121;27;20054;-73
2022/02/11 05:26:54;;;;;;;0.93;0.90;;;20.70;39.60;;;;;;5155993;27;20184;-74
2022/02/11 05:29:20;;;;;;;0.95;0.80;;;20.70;39.60;;;;;;5135592;27;20104;-73
2022/02/11 05:31:45;;;;;;;1.10;0.80;;;20.70;39.60;;;;;;5137318;27;20446;-73
2022/02/11 05:34:11;;;;;;;0.82;0.75;;;20.70;39.60;;;;;;5119297;27;20074;-73
2022/02/11 05:36:36;;;;;;;1.05;0.80;;;20.70;39.60;;;;;;5156221;27;20069;-74
2022/02/11 05:39:02;;;;;;;2.30;0.90;;;20.70;39.60;;;;;;5136996;27;20051;-73
2022/02/11 05:41:27;;;;;;;1.42;0.80;;;20.70;39.60;;;;;;5155873;27;20058;-74
2022/02/11 05:43:53;;;;;;;1.05;0.88;;;20.70;40.20;;;;;;5155836;27;20129;-74
2022/02/11 05:46:20;;;;;;;1.20;0.90;;;20.70;39.60;;;;;;5137009;27;20509;-73
2022/02/11 05:48:46;;;;;;;0.70;0.70;;;20.70;39.50;;;;;;5136509;27;20047;-73
2022/02/11 05:51:11;;;;;;;1.10;0.88;;;20.70;39.50;;;;;;5156226;27;20103;-74
2022/02/11 05:53:37;;;;;;;1.05;0.60;;;20.80;39.60;;;;;;5146552;27;20064;-74
2022/02/11 05:56:03;;;;;;;1.60;0.80;;;20.80;39.60;;;;;;5135049;28;20406;-73
2022/02/11 05:58:29;;;;;;;1.10;0.75;;;20.70;39.50;;;;;;5115405;28;20051;-73
2022/02/11 06:00:54;;;;;;;1.27;0.90;;;20.70;39.60;;;;;;5116465;28;20058;-73
2022/02/11 06:03:20;;;;;;;1.48;1.02;;;20.80;39.60;;;;;;5116198;28;20515;-73
2022/02/11 06:05:46;;;;;;;0.90;0.80;;;20.80;39.60;;;;;;5134626;28;20402;-73
2022/02/11 06:08:12;;;;;;;1.08;0.90;;;20.70;39.60;;;;;;5134666;28;20043;-73
2022/02/11 06:10:39;;;;;;;1.00;0.90;;;20.80;39.60;;;;;;5134684;28;20062;-73
2022/02/11 06:13:06;;;;;;;0.93;0.80;;;20.80;39.60;;;;;;5134602;28;20074;-73
2022/02/11 06:15:32;;;;;;;0.73;0.73;;;20.70;39.50;;;;;;5134563;28;20063;-73
2022/02/11 06:17:58;;;;;;;1.27;0.88;;;20.70;39.60;;;;;;5097660;28;20054;-73
2022/02/11 06:20:28;;;;;;;2.03;0.85;;;20.70;39.50;;;;;;5134594;28;20100;-73
2022/02/11 06:22:54;;;;;;;0.80;0.80;;;20.80;39.60;;;;;;5115031;28;20047;-73
2022/02/11 06:25:20;;;;;;;1.52;0.80;;;20.80;39.60;;;;;;5098130;28;20052;-73
2022/02/11 06:27:45;;;;;;;0.98;0.80;;;20.80;39.60;;;;;;5116138;28;20055;-73
2022/02/11 06:30:12;;;;;;;0.95;0.90;;;20.80;39.60;;;;;;5133919;28;20054;-73
2022/02/11 06:32:37;;;;;;;0.60;0.60;;;20.70;39.50;;;;;;5134193;28;20503;-73
2022/02/11 06:35:03;;;;;;;0.95;0.80;;;20.70;39.50;;;;;;5134258;28;20130;-74
2022/02/11 06:37:29;;;;;;;1.38;0.93;;;20.70;39.50;;;;;;5096442;28;20090;-73
2022/02/11 06:39:54;;;;;;;0.80;0.80;;;20.70;39.50;;;;;;5133680;28;20138;-72
2022/02/11 06:42:20;;;;;;;2.47;1.25;;;20.70;39.50;;;;;;5115641;28;20047;-73
2022/02/11 06:44:46;;;;;;;1.02;0.82;;;20.80;39.50;;;;;;5116181;28;20051;-73
2022/02/11 06:47:11;;;;;;;0.52;0.52;;;20.80;39.50;;;;;;5115445;28;20055;-73
2022/02/11 06:49:37;;;;;;;1.42;0.80;;;20.80;39.60;;;;;;5133682;28;20099;-73
2022/02/11 06:52:03;;;;;;;0.63;0.63;;;20.70;39.50;;;;;;5133895;28;20509;-73
2022/02/11 06:54:28;;;;;;;1.70;0.90;;;20.70;39.50;;;;;;5098399;28;20059;-73
2022/02/11 06:56:54;;;;;;;0.80;0.70;;;20.70;39.50;;;;;;5115767;28;20563;-73
2022/02/11 06:59:19;;;;;;;1.30;0.82;;;20.80;39.60;;;;;;5133733;28;20047;-73
2022/02/11 07:01:45;;;;;;;1.20;0.80;;;20.80;39.50;;;;;;5115377;28;20054;-73
2022/02/11 07:04:10;;;;;;;1.58;0.90;;;20.80;39.60;;;;;;5133783;28;20047;-73
2022/02/11 07:06:36;;;;;;;0.95;0.73;;;20.80;39.50;;;;;;5115192;28;20059;-73
2022/02/11 07:09:02;;;;;;;1.08;0.75;;;20.80;39.50;;;;;;5133991;28;20046;-73
2022/02/11 07:11:27;;;;;;;0.77;0.75;;;20.80;39.50;;;;;;5115195;28;20498;-73
2022/02/11 07:13:53;;;;;;;1.27;0.80;;;20.80;40.00;;;;;;5133873;28;20055;-73
2022/02/11 07:16:19;;;;;;;0.95;0.70;;;20.80;39.40;;;;;;5133530;28;20057;-73
2022/02/11 07:18:44;;;;;;;2.00;0.90;;;20.80;39.40;;;;;;5098356;28;20403;-73
2022/02/11 07:21:10;;;;;;;1.13;0.93;;;20.80;39.40;;;;;;5133783;28;20043;-73
2022/02/11 07:23:36;;;;;;;1.00;0.90;;;20.80;39.40;;;;;;5115325;28;20133;-73
2022/02/11 07:26:01;;;;;;;1.08;0.85;;;20.80;39.40;;;;;;5115128;28;20059;-73
2022/02/11 07:28:27;;;;;;;0.57;0.57;;;20.80;39.40;;;;;;5115137;28;20074;-73
2022/02/11 07:30:53;;;;;;;0.88;0.80;;;20.80;39.40;;;;;;5133476;28;20483;-73
2022/02/11 07:33:18;;;;;;;4.13;1.00;;;20.80;39.40;;;;;;5133356;28;20123;-73
2022/02/11 07:35:44;;;;;;;1.40;0.90;;;20.80;39.40;;;;;;5136229;27;20496;-74
2022/02/11 07:38:11;;;;;;;1.40;0.82;;;20.80;39.40;;;;;;5137045;28;20046;-73
2022/02/11 07:40:39;;;;;;;0.80;0.80;;;20.80;39.40;;;;;;5136885;28;20062;-73
2022/02/11 07:43:06;;;;;;;0.90;0.80;;;20.80;39.40;;;;;;5136959;28;20131;-73
2022/02/11 07:45:34;;;;;;;1.58;0.90;;;20.80;39.40;;;;;;5136958;28;20103;-74
2022/02/11 07:48:01;;;;;;;1.42;0.63;;;20.80;39.40;;;;;;5136714;28;20134;-74
2022/02/11 07:50:26;;;;;;;1.90;0.80;;;20.90;39.40;;;;;;5116489;28;20154;-74
2022/02/11 07:52:52;;;;;;;1.17;0.70;;;20.90;39.40;;;;;;5136787;28;20089;-73
2022/02/11 07:55:18;;;;;;;1.10;0.80;;;20.90;39.40;;;;;;5117448;28;20058;-73
2022/02/11 07:57:44;;;;;;;2.53;0.95;;;20.90;39.40;;;;;;5118344;28;20084;-73
2022/02/11 08:00:10;;;;;;;1.10;0.73;;;20.90;39.40;;;;;;5101098;28;20109;-73
2022/02/11 08:02:39;;;;;;;1.02;0.90;;;20.90;39.40;;;;;;5136545;28;20047;-73
2022/02/11 08:05:04;;;;;;;0.70;0.70;;;20.90;39.30;;;;;;5136630;28;20055;-73
2022/02/11 08:07:30;;;;;;;0.85;0.80;;;20.90;39.30;;;;;;5116319;28;20075;-73
2022/02/11 08:09:56;;;;;;;0.85;0.85;;;20.90;39.30;;;;;;5117862;28;20047;-73
2022/02/11 08:12:21;;;;;;;1.55;1.00;;;20.90;39.30;;;;;;5117870;28;20181;-73
2022/02/11 08:14:47;;;;;;;1.48;0.90;;;20.80;39.30;;;;;;5117967;28;20096;-73
2022/02/11 08:17:12;;;;;;;1.83;1.10;;;20.90;39.30;;;;;;5136851;28;20047;-73
2022/02/11 08:19:38;;;;;;;1.75;0.85;;;20.90;39.40;;;;;;5100030;28;20047;-73
2022/02/11 08:22:04;;;;;;;0.98;0.80;;;20.80;39.40;;;;;;5136970;28;20047;-73
2022/02/11 08:24:29;;;;;;;1.58;0.93;;;20.80;39.30;;;;;;5136233;28;20043;-73
2022/02/11 08:26:55;;;;;;;2.10;0.80;;;20.90;39.40;;;;;;5136265;28;20063;-73
2022/02/11 08:29:25;;;;;;;2.28;0.80;;;20.80;39.40;;;;;;5136140;28;20043;-73
2022/02/11 08:31:54;;;;;;;1.17;0.70;;;20.80;39.40;;;;;;5136168;28;20062;-73
2022/02/11 08:34:24;;;;;;;1.10;0.77;;;20.80;39.40;;;;;;5136406;28;20055;-73
2022/02/11 08:36:50;;;;;;;1.38;0.90;;;20.80;39.40;;;;;;5117527;28;20422;-73
2022/02/11 08:39:17;;;;;;;1.98;0.90;;;20.80;39.40;;;;;;5135887;28;20043;-73
2022/02/11 08:41:43;;;;;;;1.45;0.80;;;20.80;39.40;;;;;;5117590;28;20403;-73
2022/02/11 08:44:08;;;;;;;1.60;0.90;;;20.80;39.40;;;;;;5100555;28;20047;-73
2022/02/11 08:46:34;;;;;;;1.25;0.80;;;20.80;39.50;;;;;;5135704;27;20055;-73
2022/02/11 08:48:59;;;;;;;0.93;0.70;;;20.80;39.50;;;;;;5117488;28;20054;-73
2022/02/11 08:51:26;;;;;;;0.93;0.57;;;20.80;39.40;;;;;;5135842;28;20055;-73
2022/02/11 08:53:52;;;;;;;1.35;0.80;;;20.80;39.40;;;;;;5117359;28;20093;-73
2022/02/11 08:56:18;;;;;;;2.78;0.85;;;20.80;39.50;;;;;;5115160;28;20067;-73
2022/02/11 08:58:44;;;;;;;0.80;0.70;;;20.80;39.40;;;;;;5135795;28;20059;-73
2022/02/11 09:01:10;;;;;;;1.00;0.90;;;20.80;39.40;;;;;;5116428;28;20055;-73
2022/02/11 09:03:36;;;;;;;1.50;0.85;;;20.80;39.40;;;;;;5135681;28;20051;-73
2022/02/11 09:06:04;;;;;;;1.55;0.95;;;20.80;39.30;;;;;;5117045;28;20062;-73
2022/02/11 09:08:30;;;;;;;0.98;0.90;;;20.80;39.30;;;;;;5135507;28;20134;-73
2022/02/11 09:10:55;;;;;;;1.40;0.85;;;20.80;39.30;;;;;;5135139;28;20058;-73
2022/02/11 09:13:23;;;;;;;0.90;0.65;;;20.80;39.30;;;;;;5117060;28;20059;-73
2022/02/11 09:15:48;;;;;;;0.80;0.80;;;20.80;39.40;;;;;;5099361;28;20051;-74
2022/02/11 09:18:15;;;;;;;1.83;1.00;;;20.80;39.40;;;;;;5116966;28;20104;-73
2022/02/11 09:20:40;;;;;;;2.03;1.00;;;20.80;39.30;;;;;;5116857;28;20116;-73
2022/02/11 09:23:07;;;;;;;1.25;1.15;;;20.80;39.30;;;;;;5135160;28;20043;-74
2022/02/11 09:25:36;;;;;;;1.55;0.70;;;20.80;39.30;;;;;;5135555;28;20094;-74
2022/02/11 09:28:01;;;;;;;1.85;1.00;;;20.80;39.30;;;;;;5135215;28;20043;-73
2022/02/11 09:30:27;;;;;;;1.27;0.65;;;20.80;39.30;;;;;;5134869;28;20454;-73
2022/02/11 09:32:55;;;;;;;1.73;1.15;;;20.80;39.20;;;;;;5116862;28;20447;-73
2022/02/11 09:35:21;;;;;;;1.23;1.00;;;20.90;39.30;;;;;;5115841;28;20051;-73
2022/02/11 09:37:47;;;;;;;1.98;0.70;;;20.90;39.30;;;;;;5098254;28;20048;-73
2022/02/11 09:40:16;;;;;;;1.10;0.93;;;20.90;39.30;;;;;;5131037;28;20494;-73
2022/02/11 09:42:42;;;;;;;1.63;0.80;;;20.90;39.30;;;;;;5134879;28;20074;-73
2022/02/11 09:45:09;;;;;;;1.00;0.90;;;20.90;39.30;;;;;;5115850;28;20094;-73
2022/02/11 09:47:36;;;;;;;2.08;1.00;;;20.90;39.30;;;;;;5116315;28;20141;-73
2022/02/11 09:50:03;;;;;;;0.95;0.70;;;20.80;39.20;;;;;;5134847;28;20090;-73
2022/02/11 09:52:36;;;;;;;1.50;0.88;;;20.80;39.20;;;;;;5134737;28;20043;-74
2022/02/11 09:57:46;;;;;;;2.78;1.08;;;20.80;39.20;;;;;;5133382;27;20380;-72
2022/02/11 10:00:13;;;;;;;2.58;0.95;;;20.80;39.20;;;;;;5115481;28;20066;-73
2022/02/11 10:02:56;;;;;;;1.85;1.00;;;20.80;39.20;;;;;;5134402;28;20534;-73
2022/02/11 10:05:27;;;;;;;1.13;0.70;;;20.80;39.20;;;;;;5114664;28;20510;-73
2022/02/11 10:07:54;;;;;;;0.82;0.82;;;20.80;39.20;;;;;;5114366;28;20492;-73
2022/02/11 10:10:38;;;;;;;1.55;1.23;;;20.80;39.20;;;;;;5116258;28;20057;-73
2022/02/11 10:13:14;;;;;;;2.85;1.00;;;20.90;39.20;;;;;;5116297;28;20489;-73
2022/02/11 10:15:43;;;;;;;1.35;0.80;;;20.90;39.30;;;;;;5114614;28;20089;-73
2022/02/11 10:18:12;;;;;;;1.73;1.02;;;20.80;39.20;;;;;;5134395;28;20047;-73
2022/02/11 10:20:48;;;;;;;1.35;0.90;;;20.90;39.20;;;;;;5114121;28;20048;-73
2022/02/11 10:23:25;;;;;;;1.63;1.10;;;20.80;39.20;;;;;;5098712;28;20062;-73
2022/02/11 10:26:00;;;;;;;2.17;1.02;;;20.80;39.20;;;;;;5115773;28;20055;-73
2022/02/11 10:28:35;;;;;;;1.60;0.90;;;20.80;39.20;;;;;;5134370;28;20102;-73
2022/02/11 10:31:03;;;;;;;4.50;1.48;;;20.80;39.20;;;;;;5134543;28;20047;-73
2022/02/11 10:33:49;;;;;;;2.13;0.82;;;20.80;39.20;;;;;;5115923;28;20047;-73
2022/02/11 10:36:16;;;;;;;1.80;0.90;;;20.90;39.20;;;;;;5134355;28;20439;-73
2022/02/11 10:38:42;;;;;;;2.03;0.80;;;20.90;39.20;;;;;;5114268;28;20043;-72
2022/02/11 10:41:07;;;;;;;1.80;1.00;;;20.90;39.10;;;;;;5134017;28;20065;-73
2022/02/11 10:43:33;;;;;;;5.55;1.10;;;21.00;39.00;;;;;;5133762;28;20051;-73
2022/02/11 10:46:01;;;;;;;1.42;0.95;;;21.00;39.00;;;;;;5134314;28;20058;-73
2022/02/11 10:48:28;;;;;;;2.08;1.02;;;21.00;39.00;;;;;;5134108;28;20134;-73
2022/02/11 10:50:58;;;;;;;2.10;1.25;;;21.00;38.90;;;;;;5115357;28;20054;-73
2022/02/11 10:53:30;;;;;;;1.73;0.85;;;21.00;38.90;;;;;;5133944;28;20089;-73
2022/02/11 10:55:57;;;;;;;2.17;1.27;;;21.00;38.90;;;;;;5133912;28;20047;-73
2022/02/11 10:58:24;;;;;;;3.70;0.80;;;21.00;38.90;;;;;;5133591;28;20075;-73
2022/02/11 11:00:50;;;;;;;1.38;1.00;;;21.00;38.90;;;;;;5133671;28;20047;-73
2022/02/11 11:03:17;;;;;;;3.33;1.13;;;21.00;38.90;;;;;;5133883;28;20059;-73
2022/02/11 11:05:44;;;;;;;1.42;0.85;;;21.00;38.90;;;;;;5133611;28;20058;-73
2022/02/11 11:08:13;;;;;;;1.75;0.82;;;21.00;38.90;;;;;;5133904;28;20096;-73
2022/02/11 11:10:44;;;;;;;2.35;0.88;;;21.00;38.90;;;;;;5115007;28;20059;-73
2022/02/11 11:13:12;;;;;;;2.45;1.00;;;21.00;38.80;;;;;;5115309;28;20047;-73
2022/02/11 11:15:41;;;;;;;2.00;0.82;;;21.10;38.90;;;;;;5115082;28;20468;-73
2022/02/11 11:18:11;;;;;;;1.10;1.00;;;21.00;38.80;;;;;;5133309;28;20055;-73
2022/02/11 11:20:41;;;;;;;1.00;0.77;;;21.00;38.80;;;;;;5112620;28;20063;-73
2022/02/11 11:23:19;;;;;;;2.08;1.00;;;21.10;38.90;;;;;;5094626;28;20253;-73
2022/02/11 11:25:52;;;;;;;3.20;1.20;;;21.00;38.80;;;;;;5113249;28;20043;-73
2022/02/11 11:28:52;;;;;;;3.08;1.10;;;21.00;38.80;;;;;;5112906;28;20048;-73
2022/02/11 11:31:26;;;;;;;6.40;1.20;;;21.10;38.80;;;;;;5109564;28;20059;-73
2022/02/11 11:34:12;;;;;;;1.63;1.00;;;21.10;38.80;;;;;;5112884;28;20484;-73
2022/02/11 11:36:50;;;;;;;2.63;1.13;;;21.10;38.80;;;;;;5112603;28;20054;-73
2022/02/11 11:39:20;;;;;;;6.63;1.02;;;21.10;38.80;;;;;;5094100;28;20556;-73
2022/02/11 11:42:03;;;;;;;2.17;0.90;;;21.10;38.80;;;;;;5112773;28;20185;-73
2022/02/11 11:44:29;;;;;;;1.65;1.10;;;21.10;38.80;;;;;;5112577;28;20479;-73
2022/02/11 11:47:00;;;;;;;2.50;1.02;;;21.10;38.80;;;;;;5077305;28;20044;-73
2022/02/11 11:49:27;;;;;;;3.97;1.13;;;21.10;38.80;;;;;;5094192;28;20568;-73
2022/02/11 11:51:53;;;;;;;2.95;1.00;;;21.10;38.70;;;;;;5112807;28;20078;-73
2022/02/11 11:54:18;;;;;;;2.75;1.52;;;21.10;38.70;;;;;;5094251;28;20083;-73
2022/02/11 11:57:05;;;;;;;2.35;1.08;;;21.10;38.70;;;;;;5112832;28;20139;-73
2022/02/11 11:59:46;;;;;;;2.05;1.00;;;21.10;38.60;;;;;;5111793;28;20043;-73
2022/02/11 12:02:31;;;;;;;2.22;1.27;;;21.10;38.60;;;;;;5112439;28;20476;-73
2022/02/11 12:04:58;;;;;;;3.15;1.27;;;21.10;38.60;;;;;;5111072;28;20055;-72
2022/02/11 12:07:25;;;;;;;2.15;0.85;;;21.10;38.60;;;;;;5112312;28;20143;-72
2022/02/11 12:09:56;;;;;;;3.35;1.00;;;21.10;38.60;;;;;;5112539;28;20055;-72
2022/02/11 12:12:27;;;;;;;2.53;1.05;;;21.10;38.60;;;;;;5112356;28;20055;-73
2022/02/11 12:14:53;;;;;;;;;;;21.10;38.70;;;;;;5094586;28;20091;-73
2022/02/11 12:17:21;;;;;;;1.60;1.10;;;21.10;38.60;;;;;;5112367;28;19923;-73
2022/02/11 12:19:47;;;;;;;2.05;1.00;;;21.20;38.60;;;;;;5112157;28;20131;-73
2022/02/11 12:22:14;;;;;;;2.17;1.10;;;21.10;38.60;;;;;;5112187;28;20139;-73
2022/02/11 12:27:34;;;;;;;1.42;1.00;;;21.20;38.60;;;;;;5097546;28;20051;-73
2022/02/11 12:30:06;;;;;;;1.00;0.80;;;21.20;38.60;;;;;;5115515;28;20060;-73
2022/02/11 12:32:40;;;;;;;2.50;1.13;;;21.10;38.60;;;;;;5115848;28;20055;-73
2022/02/11 12:35:08;;;;;;;2.75;1.08;;;21.10;38.60;;;;;;5115564;28;20131;-73
2022/02/11 12:37:34;;;;;;;2.63;1.02;;;21.10;38.70;;;;;;5115579;28;20043;-73
2022/02/11 12:40:05;;;;;;;2.67;0.90;;;21.10;38.70;;;;;;5096248;28;20053;-73
2022/02/11 12:42:31;;;;;;;1.73;0.82;;;21.10;38.60;;;;;;5115218;28;20047;-73
2022/02/11 12:44:58;;;;;;;3.05;1.05;;;21.10;38.60;;;;;;5096970;28;20062;-73
2022/02/11 12:47:24;;;;;;;2.65;1.40;;;21.10;38.60;;;;;;5115699;28;20056;-73
2022/02/11 12:49:53;;;;;;;2.22;1.00;;;21.10;38.60;;;;;;5115610;28;20046;-73
2022/02/11 12:52:24;;;;;;;2.47;1.30;;;21.10;38.70;;;;;;5113960;28;20055;-73
2022/02/11 12:55:19;;;;;;;0.90;0.80;;;21.10;38.80;;;;;;5115662;28;20436;-73
2022/02/11 12:57:57;;;;;;;2.40;1.27;;;21.00;38.80;;;;;;5112105;28;20056;-73
2022/02/11 13:00:27;;;;;;;2.05;1.30;;;21.00;38.80;;;;;;5097053;28;20085;-73
2022/02/11 13:02:58;;;;;;;3.25;1.33;;;21.00;38.90;;;;;;5115240;28;20051;-73
2022/02/11 13:05:26;;;;;;;3.83;1.37;;;20.90;38.90;;;;;;5115140;28;20125;-73
2022/02/11 13:07:55;;;;;;;2.88;1.20;;;21.00;38.90;;;;;;5096637;28;20060;-73
2022/02/11 13:10:23;;;;;;;1.70;1.00;;;21.00;39.00;;;;;;5095494;28;20043;-73
2022/02/11 13:12:54;;;;;;;1.77;1.05;;;20.90;39.00;;;;;;5114923;28;20103;-73
2022/02/11 13:15:27;;;;;;;2.65;0.95;;;20.90;39.00;;;;;;5114663;28;20048;-73
2022/02/11 13:17:53;;;;;;;2.53;1.20;;;20.90;39.00;;;;;;5114466;28;20138;-73
2022/02/11 13:20:21;;;;;;;1.58;1.00;;;20.90;39.00;;;;;;5114609;28;20123;-73
2022/02/11 13:22:49;;;;;;;2.95;1.00;;;20.90;39.00;;;;;;5114403;28;20145;-73
2022/02/11 13:25:15;;;;;;;2.15;1.10;;;20.90;38.90;;;;;;5079008;28;20052;-73
2022/02/11 13:27:45;;;;;;;1.90;1.10;;;21.00;39.00;;;;;;5078680;28;20530;-73
2022/02/11 13:30:13;;;;;;;2.28;0.95;;;20.90;38.90;;;;;;5094912;28;20056;-73
2022/02/11 13:32:39;;;;;;;1.75;0.95;;;21.00;38.90;;;;;;5114376;28;20054;-73
2022/02/11 13:35:07;;;;;;;3.83;1.33;;;21.00;38.90;;;;;;5114598;28;20134;-73
2022/02/11 13:38:02;;;;;;;2.00;0.98;;;21.00;38.80;;;;;;5078577;28;20623;-73
2022/02/11 13:40:29;;;;;;;2.05;1.10;;;21.00;38.90;;;;;;5074861;28;20434;-73
2022/02/11 13:43:09;;;;;;;4.15;1.17;;;21.00;38.80;;;;;;5114550;28;20499;-73
2022/02/11 13:45:51;;;;;;;2.60;1.30;;;21.00;38.80;;;;;;5096005;28;20403;-73
2022/02/11 13:48:18;;;;;;;2.13;0.90;;;21.00;38.80;;;;;;5095247;28;20132;-73
2022/02/11 13:51:12;;;;;;;3.15;1.00;;;21.00;38.80;;;;;;5096379;28;20406;-73
2022/02/11 13:53:49;;;;;;;2.40;1.30;;;21.00;38.80;;;;;;5113139;28;20048;-73
2022/02/11 13:56:19;;;;;;;1.55;1.20;;;21.00;38.80;;;;;;5114124;28;20407;-72
2022/02/11 13:59:06;;;;;;;2.30;0.93;;;21.00;39.30;;;;;;5096038;28;20044;-73
2022/02/11 14:01:34;;;;;;;2.25;1.38;;;21.00;38.80;;;;;;5114398;28;20062;-73
2022/02/11 14:04:00;;;;;;;3.13;1.40;;;21.00;38.80;;;;;;5079006;28;20055;-73
2022/02/11 14:06:28;;;;;;;5.15;1.20;;;21.00;38.80;;;;;;5113909;28;20044;-73
2022/02/11 14:08:54;;;;;;;2.70;1.00;;;21.00;38.80;;;;;;5113872;28;20130;-73
2022/02/11 14:11:20;;;;;;;3.70;1.30;;;21.00;38.80;;;;;;5096138;28;20139;-73
2022/02/11 14:13:49;;;;;;;2.03;1.30;;;21.00;38.80;;;;;;5113916;28;20518;-73
2022/02/11 14:16:18;;;;;;;2.95;1.30;;;21.00;38.80;;;;;;5113868;28;20047;-73
2022/02/11 14:18:45;;;;;;;1.92;1.05;;;21.00;38.80;;;;;;5113956;28;20048;-73
2022/02/11 14:21:12;;;;;;;2.25;1.02;;;21.00;38.80;;;;;;5113737;28;20449;-73
2022/02/11 14:23:38;;;;;;;2.17;0.98;;;21.00;38.70;;;;;;5113883;28;20515;-73
2022/02/11 14:26:03;;;;;;;4.47;1.20;;;21.00;38.70;;;;;;5113791;28;20062;-73
2022/02/11 14:28:30;;;;;;;2.22;1.17;;;21.00;38.70;;;;;;5114337;28;20055;-73
2022/02/11 14:30:56;;;;;;;1.42;0.90;;;21.00;38.70;;;;;;5113723;28;20090;-73
2022/02/11 14:33:22;;;;;;;2.80;1.00;;;21.00;38.70;;;;;;5113700;28;20047;-73
2022/02/11 14:35:49;;;;;;;2.45;1.08;;;21.00;38.70;;;;;;5113675;28;20395;-73
2022/02/11 14:38:15;;;;;;;4.22;1.30;;;21.00;38.80;;;;;;5095183;28;20060;-73
2022/02/11 14:43:32;;;;;;;2.65;1.20;;;21.00;38.80;;;;;;5079197;28;20056;-73
2022/02/11 14:45:58;;;;;;;3.72;1.40;;;21.00;38.80;;;;;;5113371;28;20453;-73
2022/02/11 14:48:24;;;;;;;1.50;0.95;;;21.00;38.80;;;;;;5113201;28;20102;-73
2022/02/11 14:50:50;;;;;;;2.65;1.35;;;21.00;38.80;;;;;;5113468;28;20055;-72
2022/02/11 14:53:15;;;;;;;2.08;0.98;;;21.00;38.80;;;;;;5113319;28;20058;-73
2022/02/11 14:55:41;;;;;;;2.15;1.25;;;21.00;38.80;;;;;;5113266;28;20514;-72
2022/02/11 14:58:06;;;;;;;1.67;0.95;;;21.00;38.80;;;;;;5094441;28;20052;-73
2022/02/11 15:00:32;;;;;;;3.55;1.30;;;21.00;38.80;;;;;;5113639;28;20043;-73
2022/02/11 15:02:58;;;;;;;3.13;1.30;;;21.00;38.80;;;;;;5094279;28;20062;-73
2022/02/11 15:05:23;;;;;;;1.55;1.00;;;21.00;38.90;;;;;;5113040;28;20077;-73
2022/02/11 15:07:49;;;;;;;3.25;1.20;;;21.00;38.90;;;;;;5092769;28;20051;-73
2022/02/11 15:10:15;;;;;;;4.57;1.20;;;21.00;38.90;;;;;;5112950;28;20056;-73
2022/02/11 15:12:41;;;;;;;1.45;1.20;;;21.00;38.90;;;;;;5113084;28;20131;-73
2022/02/11 15:15:07;;;;;;;4.32;1.20;;;20.90;38.90;;;;;;5113357;28;20067;-73
2022/02/11 15:17:33;;;;;;;1.02;0.82;;;20.90;38.90;;;;;;5112949;28;20456;-73
2022/02/11 15:19:59;;;;;;;2.28;1.20;;;20.90;38.90;;;;;;5094986;28;20043;-73
2022/02/11 15:22:25;;;;;;;2.95;1.30;;;20.90;38.90;;;;;;5113110;28;20039;-73
2022/02/11 15:24:51;;;;;;;1.88;1.00;;;20.90;39.50;;;;;;5113009;28;20052;-73
2022/02/11 15:27:17;;;;;;;2.72;1.20;;;20.90;39.00;;;;;;5111685;28;20055;-73
2022/02/11 15:29:43;;;;;;;3.17;1.15;;;20.90;39.00;;;;;;5112880;28;20051;-73
2022/02/11 15:32:10;;;;;;;3.45;1.10;;;20.90;39.00;;;;;;5111884;28;20081;-73
2022/02/11 15:34:37;;;;;;;1.95;1.10;;;20.90;39.00;;;;;;5111436;28;20445;-73
2022/02/11 15:37:03;;;;;;;5.45;1.38;;;20.90;39.00;;;;;;5112755;28;20100;-73
2022/02/11 15:39:29;;;;;;;1.30;0.93;;;20.90;39.00;;;;;;5111381;28;20047;-73
2022/02/11 15:41:54;;;;;;;3.80;1.25;;;20.90;39.00;;;;;;5092471;28;20079;-73
2022/02/11 15:44:20;;;;;;;4.57;1.20;;;20.90;39.00;;;;;;5113048;28;20552;-73
2022/02/11 15:46:46;;;;;;;3.85;1.13;;;20.90;39.00;;;;;;5112733;28;20407;-73
2022/02/11 15:49:11;;;;;;;1.50;0.98;;;20.90;39.00;;;;;;5111357;28;20480;-73
2022/02/11 15:51:37;;;;;;;1.10;0.80;;;20.90;39.00;;;;;;5094403;28;20105;-73
2022/02/11 15:54:02;;;;;;;2.08;1.05;;;20.90;39.00;;;;;;5112604;28;20502;-72
2022/02/11 15:56:28;;;;;;;2.22;1.15;;;20.90;39.00;;;;;;5096982;28;20411;-73
2022/02/11 15:58:54;;;;;;;1.92;1.30;;;20.80;39.60;;;;;;5116346;28;20051;-73
2022/02/11 16:01:19;;;;;;;2.45;0.80;;;20.80;39.00;;;;;;5098248;28;20059;-73
2022/02/11 16:03:45;;;;;;;3.42;1.15;;;20.80;39.10;;;;;;5116158;28;20044;-73
2022/02/11 16:06:12;;;;;;;3.45;1.15;;;20.80;39.00;;;;;;5097638;28;20051;-73
2022/02/11 16:08:38;;;;;;;1.00;0.90;;;20.80;39.10;;;;;;5097738;28;20495;-75
2022/02/11 16:11:04;;;;;;;2.78;1.20;;;20.80;39.10;;;;;;5096553;28;20044;-73
2022/02/11 16:13:30;;;;;;;1.70;1.05;;;20.80;39.10;;;;;;5116407;28;20138;-73
2022/02/11 16:15:55;;;;;;;1.35;1.00;;;20.80;39.10;;;;;;5116219;28;20105;-73
2022/02/11 16:18:24;;;;;;;1.42;0.98;;;20.80;39.10;;;;;;5115646;28;20048;-73
2022/02/11 16:20:52;;;;;;;3.72;0.85;;;20.80;39.20;;;;;;5115665;28;20103;-73
2022/02/11 16:23:21;;;;;;;1.98;1.25;;;20.70;39.10;;;;;;5097563;28;20146;-73
2022/02/11 16:25:47;;;;;;;3.90;1.15;;;20.80;39.20;;;;;;5080421;28;20055;-73